createdAt,value
2022-11-20T00:00:59.165Z,10.77
2022-11-20T00:03:27.156Z,11.60
2022-11-20T00:05:55.052Z,10.57
2022-11-20T00:08:22.980Z,10.77
2022-11-20T00:10:51.077Z,11.57
2022-11-20T00:13:19.140Z,11.70
2022-11-20T00:15:48.555Z,11.40
2022-11-20T00:18:16.506Z,10.35
2022-11-20T00:20:44.391Z,11.43
2022-11-20T00:23:12.467Z,11.20
2022-11-20T00:25:40.541Z,10.73
2022-11-20T00:28:08.413Z,10.32
2022-11-20T00:30:36.348Z,10.15
2022-11-20T00:33:05.532Z,11.13
2022-11-20T00:35:33.683Z,9.98
2022-11-20T00:38:01.572Z,11.23
2022-11-20T00:40:29.465Z,10.30
2022-11-20T00:42:57.380Z,11.15
2022-11-20T00:45:25.304Z,9.97
2022-11-20T00:47:53.243Z,11.02
2022-11-20T00:50:22.524Z,10.40
2022-11-20T00:52:50.408Z,11.07
2022-11-20T00:55:18.337Z,10.30
2022-11-20T00:57:46.199Z,10.48
2022-11-20T01:00:14.504Z,10.38
2022-11-20T01:02:42.354Z,10.52
2022-11-20T01:05:10.358Z,10.52
2022-11-20T01:07:39.675Z,10.53
2022-11-20T01:10:08.836Z,10.20
2022-11-20T01:12:36.728Z,10.00
2022-11-20T01:15:05.106Z,10.07
2022-11-20T01:17:33.833Z,10.10
2022-11-20T01:20:01.757Z,9.65
2022-11-20T01:22:30.656Z,9.98
2022-11-20T01:25:00.140Z,10.40
2022-11-20T01:27:27.988Z,10.20
2022-11-20T01:30:00.943Z,10.60
2022-11-20T01:32:29.253Z,10.10
2022-11-20T01:34:58.158Z,10.00
2022-11-20T01:37:26.237Z,9.75
2022-11-20T01:39:54.358Z,10.32
2022-11-20T01:42:41.181Z,10.50
2022-11-20T01:45:42.246Z,9.63
2022-11-20T01:48:10.524Z,9.80
2022-11-20T01:50:38.473Z,9.55
2022-11-20T01:53:09.506Z,9.93
2022-11-20T01:55:41.244Z,9.03
2022-11-20T01:58:11.060Z,9.75
2022-11-20T02:00:39.012Z,9.32
2022-11-20T02:03:11.144Z,10.02
2022-11-20T02:05:44.167Z,9.18
2022-11-20T02:08:13.167Z,8.63
2022-11-20T02:10:41.157Z,9.05
2022-11-20T02:13:28.856Z,9.13
2022-11-20T02:15:57.267Z,9.57
2022-11-20T02:18:26.518Z,10.00
2022-11-20T02:20:59.662Z,9.60
2022-11-20T02:23:34.573Z,9.63
2022-11-20T02:26:07.002Z,9.93
2022-11-20T02:28:35.446Z,8.95
2022-11-20T02:31:03.527Z,9.23
2022-11-20T02:33:31.350Z,9.25
2022-11-20T02:35:59.372Z,9.77
2022-11-20T02:38:27.299Z,8.90
2022-11-20T02:40:55.888Z,9.10
2022-11-20T02:43:25.325Z,9.45
2022-11-20T02:45:53.382Z,9.45
2022-11-20T02:48:21.422Z,9.27
2022-11-20T02:50:49.285Z,9.23
2022-11-20T02:53:17.172Z,8.73
2022-11-20T02:55:45.028Z,9.38
2022-11-20T02:58:12.950Z,8.85
2022-11-20T03:00:42.175Z,9.00
2022-11-20T03:03:10.171Z,9.27
2022-11-20T03:05:38.057Z,9.32
2022-11-20T03:08:06.473Z,9.02
2022-11-20T03:10:34.339Z,9.80
2022-11-20T03:13:02.138Z,9.10
2022-11-20T03:15:30.682Z,8.68
2022-11-20T03:18:00.071Z,9.77
2022-11-20T03:20:27.923Z,9.13
2022-11-20T03:22:56.363Z,9.52
2022-11-20T03:25:24.564Z,8.88
2022-11-20T03:27:52.619Z,8.38
2022-11-20T03:30:20.657Z,9.23
2022-11-20T03:32:48.815Z,8.88
2022-11-20T03:35:18.581Z,8.52
2022-11-20T03:37:47.085Z,8.13
2022-11-20T03:40:15.230Z,8.82
2022-11-20T03:42:49.121Z,8.88
2022-11-20T03:45:19.069Z,8.73
2022-11-20T03:47:47.483Z,8.85
2022-11-20T03:50:17.100Z,8.13
2022-11-20T03:52:44.972Z,8.50
2022-11-20T03:55:13.017Z,9.05
2022-11-20T03:57:40.858Z,9.13
2022-11-20T04:00:09.796Z,8.40
2022-11-20T04:02:38.708Z,8.63
2022-11-20T04:05:07.267Z,8.95
2022-11-20T04:07:37.533Z,8.70
2022-11-20T04:10:06.135Z,8.63
2022-11-20T04:12:35.351Z,8.60
2022-11-20T04:15:03.266Z,8.90
2022-11-20T04:17:31.143Z,8.80
2022-11-20T04:19:59.306Z,9.38
2022-11-20T04:22:27.216Z,8.98
2022-11-20T04:24:56.487Z,9.20
2022-11-20T04:27:24.410Z,9.20
2022-11-20T04:29:52.295Z,8.90
2022-11-20T04:32:20.212Z,10.02
2022-11-20T04:34:48.255Z,9.73
2022-11-20T04:37:16.135Z,8.93
2022-11-20T04:39:44.137Z,9.57
2022-11-20T04:42:31.581Z,8.90
2022-11-20T04:44:59.938Z,9.02
2022-11-20T04:47:27.877Z,8.93
2022-11-20T04:49:55.867Z,9.65
2022-11-20T04:52:23.740Z,9.97
2022-11-20T04:54:53.735Z,9.13
2022-11-20T04:57:24.111Z,9.80
2022-11-20T04:59:51.970Z,9.00
2022-11-20T05:02:20.007Z,9.02
2022-11-20T05:04:47.927Z,9.00
2022-11-20T05:07:16.063Z,9.20
2022-11-20T05:09:44.444Z,8.82
2022-11-20T05:12:12.312Z,8.75
2022-11-20T05:14:41.573Z,8.80
2022-11-20T05:17:12.486Z,8.65
2022-11-20T05:19:40.504Z,8.95
2022-11-20T05:22:08.406Z,9.00
2022-11-20T05:24:36.271Z,8.88
2022-11-20T05:27:04.326Z,8.95
2022-11-20T05:29:32.186Z,8.65
2022-11-20T05:32:01.434Z,8.85
2022-11-20T05:34:29.373Z,8.85
2022-11-20T05:36:57.208Z,9.07
2022-11-20T05:39:25.078Z,8.70
2022-11-20T05:42:12.939Z,9.10
2022-11-20T05:44:40.920Z,9.13
2022-11-20T05:47:10.203Z,9.10
2022-11-20T05:49:38.038Z,8.90
2022-11-20T05:52:07.711Z,8.63
2022-11-20T05:54:35.618Z,8.15
2022-11-20T05:57:04.122Z,8.32
2022-11-20T05:59:32.105Z,9.02
2022-11-20T06:01:59.998Z,8.65
2022-11-20T06:04:29.405Z,8.80
2022-11-20T06:06:58.489Z,8.40
2022-11-20T06:09:26.411Z,9.17
2022-11-20T06:11:54.221Z,8.52
2022-11-20T06:14:22.107Z,8.50
2022-11-20T06:16:49.972Z,9.38
2022-11-20T06:19:18.951Z,9.17
2022-11-20T06:21:49.869Z,8.67
2022-11-20T06:24:18.178Z,8.90
2022-11-20T06:26:46.564Z,8.50
2022-11-20T06:29:17.558Z,8.40
2022-11-20T06:31:45.815Z,8.83
2022-11-20T06:34:13.806Z,9.60
2022-11-20T06:36:41.736Z,8.48
2022-11-20T06:39:11.185Z,9.37
2022-11-20T06:41:41.931Z,8.82
2022-11-20T06:44:09.774Z,7.82
2022-11-20T06:46:37.658Z,8.68
2022-11-20T06:49:06.905Z,7.97
2022-11-20T06:51:34.972Z,8.68
2022-11-20T06:54:02.980Z,8.43
2022-11-20T06:56:32.212Z,7.90
2022-11-20T06:59:00.034Z,8.57
2022-11-20T07:01:27.958Z,8.00
2022-11-20T07:03:56.018Z,7.85
2022-11-20T07:06:23.878Z,8.00
2022-11-20T07:08:53.286Z,8.18
2022-11-20T07:11:22.389Z,8.07
2022-11-20T07:13:51.893Z,8.48
2022-11-20T07:16:19.939Z,7.73
2022-11-20T07:18:50.816Z,8.10
2022-11-20T07:21:21.998Z,7.43
2022-11-20T07:23:50.985Z,7.60
2022-11-20T07:26:18.853Z,8.23
2022-11-20T07:28:48.427Z,7.63
2022-11-20T07:31:19.701Z,7.82
2022-11-20T07:33:48.013Z,7.82
2022-11-20T07:36:15.912Z,7.53
2022-11-20T07:38:43.814Z,7.77
2022-11-20T07:41:12.021Z,7.23
2022-11-20T07:43:41.651Z,7.37
2022-11-20T07:46:09.719Z,7.43
2022-11-20T07:48:38.909Z,7.40
2022-11-20T07:51:07.767Z,7.10
2022-11-20T07:53:35.675Z,7.07
2022-11-20T07:56:04.140Z,7.43
2022-11-20T07:58:33.873Z,6.72
2022-11-20T08:01:05.398Z,6.97
2022-11-20T08:03:33.393Z,7.32
2022-11-20T08:06:03.494Z,7.55
2022-11-20T08:08:33.890Z,6.60
2022-11-20T08:11:16.072Z,7.45
2022-11-20T08:14:12.818Z,7.32
2022-11-20T08:16:41.018Z,7.78
2022-11-20T08:19:09.512Z,7.47
2022-11-20T08:21:38.740Z,7.43
2022-11-20T08:24:07.729Z,7.20
2022-11-20T08:26:36.322Z,7.00
2022-11-20T08:29:04.645Z,7.18
2022-11-20T08:31:33.229Z,6.60
2022-11-20T08:34:03.880Z,7.30
2022-11-20T08:36:35.921Z,7.90
2022-11-20T08:39:06.101Z,7.60
2022-11-20T08:41:34.222Z,7.25
2022-11-20T08:44:04.198Z,7.53
2022-11-20T08:46:36.363Z,6.93
2022-11-20T08:49:04.519Z,6.97
2022-11-20T08:51:32.677Z,7.32
2022-11-20T08:54:00.605Z,7.28
2022-11-20T08:56:29.907Z,8.10
2022-11-20T09:01:46.192Z,7.88
2022-11-20T09:04:17.294Z,7.60
2022-11-20T09:06:48.133Z,6.97
2022-11-20T09:09:31.473Z,7.30
2022-11-20T09:12:16.869Z,8.20
2022-11-20T09:14:55.108Z,7.13
2022-11-20T09:21:02.793Z,7.22
2022-11-20T09:23:51.653Z,6.43
2022-11-20T09:26:29.660Z,7.73
2022-11-20T09:29:20.587Z,7.45
2022-11-20T09:31:55.198Z,7.93
2022-11-20T09:34:25.704Z,7.38
2022-11-20T09:36:54.111Z,7.15
2022-11-20T09:39:29.749Z,6.65
2022-11-20T09:45:59.081Z,6.78
2022-11-20T09:48:46.305Z,7.07
2022-11-20T09:51:26.259Z,7.03
2022-11-20T09:54:12.045Z,6.77
2022-11-20T09:56:52.497Z,6.60
2022-11-20T09:59:31.325Z,7.22
2022-11-20T10:02:01.329Z,6.90
2022-11-20T10:04:38.143Z,7.20
2022-11-20T10:07:31.754Z,7.07
2022-11-20T10:10:01.530Z,8.45
2022-11-20T10:12:42.252Z,7.45
2022-11-20T10:15:27.846Z,7.90
2022-11-20T10:18:21.651Z,6.95
2022-11-20T10:21:01.219Z,6.72
2022-11-20T10:24:03.016Z,6.82
2022-11-20T10:26:37.568Z,7.38
2022-11-20T10:29:13.352Z,7.65
2022-11-20T10:31:47.190Z,7.82
2022-11-20T10:34:24.976Z,8.45
2022-11-20T10:36:59.669Z,7.60
2022-11-20T10:39:37.915Z,6.90
2022-11-20T10:42:13.392Z,7.60
2022-11-20T10:45:06.739Z,7.40
2022-11-20T10:47:40.507Z,7.13
2022-11-20T10:50:22.444Z,7.27
2022-11-20T10:53:06.307Z,8.32
2022-11-20T10:55:52.123Z,7.43
2022-11-20T10:58:31.328Z,7.25
2022-11-20T11:01:11.064Z,7.03
2022-11-20T11:03:41.722Z,7.82
2022-11-20T11:06:21.102Z,7.10
2022-11-20T11:08:52.167Z,7.32
2022-11-20T11:11:26.227Z,7.28
2022-11-20T11:14:23.518Z,7.22
2022-11-20T11:17:09.846Z,6.93
2022-11-20T11:20:27.435Z,6.70
2022-11-20T11:23:06.268Z,7.10
2022-11-20T11:25:37.790Z,6.93
2022-11-20T11:28:21.741Z,6.55
2022-11-20T11:30:56.914Z,7.32
2022-11-20T11:33:27.200Z,7.00
2022-11-20T11:35:58.303Z,7.15
2022-11-20T11:38:37.364Z,7.95
2022-11-20T11:41:08.555Z,7.60
2022-11-20T11:43:57.011Z,8.13
2022-11-20T11:46:31.476Z,8.25
2022-11-20T11:49:21.221Z,8.30
2022-11-20T11:52:16.271Z,7.43
2022-11-20T11:55:27.353Z,7.35
2022-11-20T11:57:59.864Z,7.72
2022-11-20T12:00:30.170Z,8.32
2022-11-20T12:03:14.750Z,8.63
2022-11-20T12:05:45.340Z,7.97
2022-11-20T12:08:19.849Z,7.35
2022-11-20T12:10:56.954Z,7.43
2022-11-20T12:13:40.142Z,8.18
2022-11-20T12:16:13.466Z,9.10
2022-11-20T12:18:41.952Z,9.23
2022-11-20T12:21:20.985Z,9.52
2022-11-20T12:24:04.736Z,9.05
2022-11-20T12:26:53.993Z,8.50
2022-11-20T12:29:50.417Z,9.88
2022-11-20T12:32:46.894Z,9.32
2022-11-20T12:35:38.195Z,9.68
2022-11-20T12:38:38.273Z,8.80
2022-11-20T12:41:35.315Z,8.35
2022-11-20T12:44:38.311Z,8.77
2022-11-20T12:47:19.649Z,8.45
2022-11-20T12:49:55.092Z,9.32
2022-11-20T12:52:41.351Z,8.75
2022-11-20T12:55:22.703Z,8.75
2022-11-20T12:57:57.381Z,8.18
2022-11-20T13:00:27.871Z,8.57
2022-11-20T13:03:21.868Z,9.48
2022-11-20T13:06:01.194Z,9.18
2022-11-20T13:08:33.891Z,9.05
2022-11-20T13:11:09.726Z,9.52
2022-11-20T13:14:08.634Z,9.80
2022-11-20T13:16:43.765Z,9.48
2022-11-20T13:19:37.061Z,8.88
2022-11-20T13:22:11.675Z,9.20
2022-11-20T13:24:43.508Z,8.80
2022-11-20T13:27:24.183Z,9.43
2022-11-20T13:30:21.651Z,9.23
2022-11-20T13:32:58.538Z,8.38
2022-11-20T13:35:38.676Z,8.63
2022-11-20T13:38:17.212Z,8.25
2022-11-20T13:40:55.060Z,9.13
2022-11-20T13:46:29.310Z,10.30
2022-11-20T13:49:11.459Z,9.90
2022-11-20T13:53:03.223Z,8.88
2022-11-20T13:55:47.280Z,8.23
2022-11-20T13:59:23.547Z,9.30
2022-11-20T14:02:18.839Z,8.75
2022-11-20T14:05:01.927Z,8.40
2022-11-20T14:08:00.749Z,9.40
2022-11-20T14:11:14.253Z,8.93
2022-11-20T14:14:10.871Z,8.70
2022-11-20T14:16:40.111Z,9.32
2022-11-20T14:19:35.658Z,8.35
2022-11-20T14:22:28.328Z,8.70
2022-11-20T14:25:05.907Z,9.10
2022-11-20T14:27:48.600Z,9.57
2022-11-20T14:30:27.930Z,9.45
2022-11-20T14:33:09.838Z,9.32
2022-11-20T15:13:33.845Z,8.57
2022-11-20T15:16:03.674Z,8.20
2022-11-20T15:18:35.201Z,7.47
2022-11-20T15:21:05.317Z,9.10
2022-11-20T15:23:33.332Z,7.40
2022-11-20T15:26:01.509Z,7.20
2022-11-20T15:28:34.040Z,7.60
2022-11-20T15:31:03.515Z,7.43
2022-11-20T15:33:31.987Z,7.05
2022-11-20T15:36:00.103Z,6.47
2022-11-20T15:38:28.277Z,7.47
2022-11-20T15:40:56.423Z,7.30
2022-11-20T15:43:24.561Z,7.78
2022-11-20T15:45:57.064Z,7.82
2022-11-20T15:48:28.531Z,7.75
2022-11-20T15:51:00.026Z,7.20
2022-11-20T15:53:28.154Z,7.55
2022-11-20T15:55:56.341Z,7.28
2022-11-20T15:58:25.353Z,7.68
2022-11-20T16:00:55.499Z,7.53
2022-11-20T16:03:25.976Z,7.03
2022-11-20T16:05:57.041Z,7.10
2022-11-20T16:08:25.029Z,7.25
2022-11-20T16:21:05.330Z,8.55
2022-11-20T16:23:34.134Z,8.07
2022-11-20T16:26:10.772Z,8.05
2022-11-20T16:28:38.957Z,8.18
2022-11-20T16:31:11.684Z,8.00
2022-11-20T16:33:39.784Z,8.80
2022-11-20T16:36:15.922Z,8.75
2022-11-20T16:38:44.134Z,8.65
2022-11-20T16:41:14.449Z,8.57
2022-11-20T16:43:50.087Z,8.77
2022-11-20T16:46:18.928Z,8.38
2022-11-20T16:48:47.061Z,8.57
2022-11-20T16:51:16.337Z,8.65
2022-11-20T16:53:44.306Z,9.07
2022-11-20T16:56:15.991Z,8.15
2022-11-20T16:58:43.905Z,8.32
2022-11-20T17:01:13.766Z,8.43
2022-11-20T17:03:42.706Z,8.45
2022-11-20T17:06:16.932Z,7.95
2022-11-20T17:08:45.109Z,8.50
2022-11-20T17:11:15.001Z,8.30
2022-11-20T17:13:43.131Z,8.93
2022-11-20T17:16:12.967Z,9.10
2022-11-20T17:18:58.179Z,9.20
2022-11-20T17:21:30.900Z,9.63
2022-11-20T17:24:03.396Z,9.48
2022-11-20T17:26:31.891Z,9.68
2022-11-20T17:29:05.476Z,9.10
2022-11-20T17:31:35.498Z,10.07
2022-11-20T17:34:06.584Z,9.90
2022-11-20T17:36:44.872Z,10.05
2022-11-20T17:39:16.432Z,10.13
2022-11-20T17:42:07.214Z,10.65
2022-11-20T17:44:38.708Z,9.95
2022-11-20T17:47:08.001Z,9.73
2022-11-20T17:49:38.016Z,9.95
2022-11-20T17:52:07.514Z,10.05
2022-11-20T17:54:37.202Z,10.10
2022-11-20T17:57:22.593Z,10.15
2022-11-20T17:59:50.489Z,11.00
2022-11-20T18:02:18.417Z,10.23
2022-11-20T18:04:46.537Z,10.70
2022-11-20T18:07:21.080Z,10.50
2022-11-20T18:09:49.084Z,10.18
2022-11-20T18:12:17.058Z,11.07
2022-11-20T18:14:56.304Z,11.32
2022-11-20T18:17:24.618Z,11.20
2022-11-20T18:20:14.255Z,11.48
2022-11-20T18:22:43.158Z,11.38
2022-11-20T18:25:11.510Z,11.73
2022-11-20T18:27:39.540Z,10.50
2022-11-20T18:30:08.724Z,11.88
2022-11-20T18:32:37.039Z,11.07
2022-11-20T18:35:05.668Z,12.48
2022-11-20T18:37:33.734Z,11.70
2022-11-20T18:40:03.119Z,12.52
2022-11-20T18:42:48.683Z,12.50
2022-11-20T18:45:19.478Z,12.27
2022-11-20T18:47:47.663Z,12.15
2022-11-20T18:50:17.458Z,11.82
2022-11-20T18:52:47.807Z,11.65
2022-11-20T18:55:25.085Z,13.30
2022-11-20T18:57:57.870Z,12.23
2022-11-20T19:00:25.858Z,11.93
2022-11-20T19:02:55.519Z,12.32
2022-11-20T19:05:30.693Z,12.60
2022-11-20T19:07:58.839Z,12.52
2022-11-20T19:10:28.886Z,12.40
2022-11-20T19:12:58.447Z,12.82
2022-11-20T19:15:29.245Z,12.68
2022-11-20T19:18:03.563Z,12.85
2022-11-20T19:20:31.946Z,12.48
2022-11-20T19:23:00.207Z,11.93
2022-11-20T19:25:38.126Z,12.05
2022-11-20T19:28:06.681Z,12.00
2022-11-20T19:30:43.033Z,11.82
2022-11-20T19:33:11.029Z,11.68
2022-11-20T19:35:39.144Z,12.20
2022-11-20T19:38:07.332Z,11.95
2022-11-20T19:40:40.092Z,12.38
2022-11-20T19:43:08.042Z,12.02
2022-11-20T19:45:37.887Z,12.25
2022-11-20T19:48:08.039Z,11.93
2022-11-20T19:50:49.918Z,12.00
2022-11-20T19:53:18.659Z,12.05
2022-11-20T19:55:57.922Z,12.45
2022-11-20T19:58:26.467Z,11.65
2022-11-20T20:00:59.705Z,12.48
2022-11-20T20:03:29.481Z,11.85
2022-11-20T20:05:59.648Z,11.57
2022-11-20T20:08:27.528Z,11.52
2022-11-20T20:10:59.750Z,12.25
2022-11-20T20:13:28.253Z,11.50
2022-11-20T20:15:57.585Z,11.85
2022-11-20T20:18:25.530Z,11.23
2022-11-20T20:20:53.472Z,11.02
2022-11-20T20:23:21.774Z,11.10
2022-11-20T20:25:49.995Z,10.95
2022-11-20T20:28:19.603Z,11.23
2022-11-20T20:30:47.548Z,10.98
2022-11-20T20:33:15.556Z,10.93
2022-11-20T20:35:45.985Z,10.70
2022-11-20T20:38:14.016Z,11.40
2022-11-20T20:40:49.397Z,10.90
2022-11-20T20:43:19.076Z,11.02
2022-11-20T20:45:48.606Z,10.10
2022-11-20T20:48:18.433Z,10.48
2022-11-20T20:50:57.066Z,11.00
2022-11-20T20:53:26.233Z,10.50
2022-11-20T20:55:58.480Z,9.77
2022-11-20T20:58:28.589Z,10.45
2022-11-20T21:01:02.054Z,10.05
2022-11-20T21:03:32.983Z,10.57
2022-11-20T21:06:01.338Z,12.30
2022-11-20T21:08:29.908Z,12.18
2022-11-20T21:11:02.513Z,10.85
2022-11-20T21:13:39.689Z,10.68
2022-11-20T21:16:10.791Z,10.38
2022-11-20T21:18:39.227Z,10.40
2022-11-20T21:21:25.628Z,10.15
2022-11-20T21:23:53.959Z,9.88
2022-11-20T21:26:22.930Z,9.65
2022-11-20T21:28:52.362Z,9.48
2022-11-20T21:31:23.437Z,9.52
2022-11-20T21:33:52.575Z,9.73
2022-11-20T21:36:21.780Z,9.18
2022-11-20T21:38:51.643Z,8.93
2022-11-20T21:41:20.116Z,9.15
2022-11-20T21:44:09.170Z,8.48
2022-11-20T21:46:40.324Z,9.68
2022-11-20T21:49:08.500Z,8.50
2022-11-20T21:51:38.086Z,8.20
2022-11-20T21:54:06.369Z,9.07
2022-11-20T21:56:34.205Z,8.80
2022-11-20T21:59:02.027Z,8.60
2022-11-20T22:01:31.601Z,8.52
2022-11-20T22:04:02.402Z,8.45
2022-11-20T22:06:32.819Z,8.27
2022-11-20T22:09:00.941Z,8.02
2022-11-20T22:11:29.200Z,8.75
2022-11-20T22:14:14.384Z,8.32
2022-11-20T22:16:42.477Z,8.40
2022-11-20T22:19:11.982Z,8.48
2022-11-20T22:21:40.646Z,8.32
2022-11-20T22:24:09.098Z,8.25
2022-11-20T22:26:40.542Z,8.10
2022-11-20T22:29:10.181Z,8.00
2022-11-20T22:31:38.049Z,8.23
2022-11-20T22:34:05.884Z,8.40
2022-11-20T22:36:38.382Z,8.05
2022-11-20T22:39:06.981Z,7.78
2022-11-20T22:41:35.089Z,8.10
2022-11-20T22:44:04.911Z,7.55
2022-11-20T22:46:34.688Z,7.65
2022-11-20T22:49:04.643Z,8.05
2022-11-20T22:51:36.260Z,7.22
2022-11-20T22:54:04.814Z,7.45
2022-11-20T22:56:33.082Z,7.05
2022-11-20T22:59:00.916Z,7.55
2022-11-20T23:01:30.413Z,8.25
2022-11-20T23:04:00.568Z,7.55
2022-11-20T23:06:29.334Z,7.10
2022-11-20T23:08:58.606Z,7.32
2022-11-20T23:11:28.834Z,7.13
2022-11-20T23:13:58.130Z,7.15
2022-11-20T23:16:27.834Z,7.18
2022-11-20T23:18:56.714Z,7.72
2022-11-20T23:21:25.352Z,7.20
2022-11-20T23:23:55.031Z,7.38
2022-11-20T23:26:26.166Z,8.00
2022-11-20T23:28:55.253Z,7.80
2022-11-20T23:31:23.340Z,6.53
2022-11-20T23:33:51.680Z,7.10
2022-11-20T23:36:19.659Z,7.13
2022-11-20T23:38:47.643Z,7.70
2022-11-20T23:41:15.743Z,7.20
2022-11-20T23:43:45.196Z,7.00
2022-11-20T23:46:16.484Z,7.45
2022-11-20T23:48:45.769Z,7.00
2022-11-20T23:51:13.977Z,7.45
2022-11-20T23:53:41.997Z,6.90
2022-11-20T23:56:10.310Z,7.15
2022-11-20T23:58:39.768Z,7.05
